sensor_id;sensor_type;location;lat;lon;timestamp;P1;P2;P0
56069;PMS5003;41944;52.078;-0.058;2024-01-30T00:00:12;31;26;
56069;PMS5003;41944;52.078;-0.058;2024-01-30T00:02:39;31;27;
56069;PMS5003;41944;52.078;-0.058;2024-01-30T00:05:07;28;22;
56069;PMS5003;41944;52.078;-0.058;2024-01-30T00:07:34;27;26;
56069;PMS5003;41944;52.078;-0.058;2024-01-30T00:10:01;24;23;
56069;PMS5003;41944;52.078;-0.058;2024-01-30T00:12:27;30;26;
56069;PMS5003;41944;52.078;-0.058;2024-01-30T00:14:54;29;25;
56069;PMS5003;41944;52.078;-0.058;2024-01-30T00:17:21;29;24;
56069;PMS5003;41944;52.078;-0.058;2024-01-30T00:19:48;26;22;
56069;PMS5003;41944;52.078;-0.058;2024-01-30T00:22:15;30;25;
56069;PMS5003;41944;52.078;-0.058;2024-01-30T00:24:42;34;26;
56069;PMS5003;41944;52.078;-0.058;2024-01-30T00:27:09;29;26;
56069;PMS5003;41944;52.078;-0.058;2024-01-30T00:29:36;31;26;
56069;PMS5003;41944;52.078;-0.058;2024-01-30T00:32:03;28;26;
56069;PMS5003;41944;52.078;-0.058;2024-01-30T00:34:31;25;22;
56069;PMS5003;41944;52.078;-0.058;2024-01-30T00:36:58;31;25;
56069;PMS5003;41944;52.078;-0.058;2024-01-30T00:39:25;24;22;
56069;PMS5003;41944;52.078;-0.058;2024-01-30T00:41:52;24;23;
56069;PMS5003;41944;52.078;-0.058;2024-01-30T00:44:19;29;25;
56069;PMS5003;41944;52.078;-0.058;2024-01-30T00:46:46;25;24;
56069;PMS5003;41944;52.078;-0.058;2024-01-30T00:49:13;29;24;
56069;PMS5003;41944;52.078;-0.058;2024-01-30T00:51:40;27;23;
56069;PMS5003;41944;52.078;-0.058;2024-01-30T00:54:07;22;20;
56069;PMS5003;41944;52.078;-0.058;2024-01-30T00:56:34;24;20;
56069;PMS5003;41944;52.078;-0.058;2024-01-30T00:59:01;23;18;
56069;PMS5003;41944;52.078;-0.058;2024-01-30T01:01:28;20;19;
56069;PMS5003;41944;52.078;-0.058;2024-01-30T01:03:55;25;22;
56069;PMS5003;41944;52.078;-0.058;2024-01-30T01:06:22;26;26;
56069;PMS5003;41944;52.078;-0.058;2024-01-30T01:08:49;25;23;
56069;PMS5003;41944;52.078;-0.058;2024-01-30T01:11:16;25;22;
56069;PMS5003;41944;52.078;-0.058;2024-01-30T01:13:44;21;19;
56069;PMS5003;41944;52.078;-0.058;2024-01-30T01:16:11;19;18;
56069;PMS5003;41944;52.078;-0.058;2024-01-30T01:18:39;26;21;
56069;PMS5003;41944;52.078;-0.058;2024-01-30T01:21:05;23;20;
56069;PMS5003;41944;52.078;-0.058;2024-01-30T01:23:32;20;18;
56069;PMS5003;41944;52.078;-0.058;2024-01-30T01:26:00;24;22;
56069;PMS5003;41944;52.078;-0.058;2024-01-30T01:28:27;22;20;
56069;PMS5003;41944;52.078;-0.058;2024-01-30T01:30:53;20;19;
56069;PMS5003;41944;52.078;-0.058;2024-01-30T01:33:20;17;17;
56069;PMS5003;41944;52.078;-0.058;2024-01-30T01:35:47;16;16;
56069;PMS5003;41944;52.078;-0.058;2024-01-30T01:38:14;15;13;
56069;PMS5003;41944;52.078;-0.058;2024-01-30T01:40:41;23;21;
56069;PMS5003;41944;52.078;-0.058;2024-01-30T01:43:08;16;13;
56069;PMS5003;41944;52.078;-0.058;2024-01-30T01:45:35;14;13;
56069;PMS5003;41944;52.078;-0.058;2024-01-30T01:48:02;17;13;
56069;PMS5003;41944;52.078;-0.058;2024-01-30T01:50:29;12;11;
56069;PMS5003;41944;52.078;-0.058;2024-01-30T01:52:56;10;8;
56069;PMS5003;41944;52.078;-0.058;2024-01-30T01:55:24;10;8;
56069;PMS5003;41944;52.078;-0.058;2024-01-30T01:57:51;14;12;
56069;PMS5003;41944;52.078;-0.058;2024-01-30T02:00:19;8;7;
56069;PMS5003;41944;52.078;-0.058;2024-01-30T02:02:47;9;7;
56069;PMS5003;41944;52.078;-0.058;2024-01-30T02:05:14;5;5;
56069;PMS5003;41944;52.078;-0.058;2024-01-30T02:07:41;8;5;
56069;PMS5003;41944;52.078;-0.058;2024-01-30T02:10:09;6;5;
56069;PMS5003;41944;52.078;-0.058;2024-01-30T02:12:36;8;7;
56069;PMS5003;41944;52.078;-0.058;2024-01-30T02:15:03;7;6;
56069;PMS5003;41944;52.078;-0.058;2024-01-30T02:17:31;6;5;
56069;PMS5003;41944;52.078;-0.058;2024-01-30T02:19:58;7;4;
56069;PMS5003;41944;52.078;-0.058;2024-01-30T02:22:25;5;5;
56069;PMS5003;41944;52.078;-0.058;2024-01-30T02:24:52;8;7;
56069;PMS5003;41944;52.078;-0.058;2024-01-30T02:27:19;6;2;
56069;PMS5003;41944;52.078;-0.058;2024-01-30T02:29:46;6;4;
56069;PMS5003;41944;52.078;-0.058;2024-01-30T02:32:13;4;2;
56069;PMS5003;41944;52.078;-0.058;2024-01-30T02:34:40;4;2;
56069;PMS5003;41944;52.078;-0.058;2024-01-30T02:37:06;3;2;
56069;PMS5003;41944;52.078;-0.058;2024-01-30T02:39:33;3;3;
56069;PMS5003;41944;52.078;-0.058;2024-01-30T02:42:00;2;2;
56069;PMS5003;41944;52.078;-0.058;2024-01-30T02:44:27;3;2;
56069;PMS5003;41944;52.078;-0.058;2024-01-30T02:46:55;5;2;
56069;PMS5003;41944;52.078;-0.058;2024-01-30T02:49:22;4;2;
56069;PMS5003;41944;52.078;-0.058;2024-01-30T02:51:49;2;1;
56069;PMS5003;41944;52.078;-0.058;2024-01-30T02:54:16;2;2;
56069;PMS5003;41944;52.078;-0.058;2024-01-30T02:56:44;3;2;
56069;PMS5003;41944;52.078;-0.058;2024-01-30T02:59:11;1;0;
56069;PMS5003;41944;52.078;-0.058;2024-01-30T03:01:45;2;0;
56069;PMS5003;41944;52.078;-0.058;2024-01-30T03:04:12;0;0;
56069;PMS5003;41944;52.078;-0.058;2024-01-30T03:06:44;2;1;
56069;PMS5003;41944;52.078;-0.058;2024-01-30T03:09:11;1;1;
56069;PMS5003;41944;52.078;-0.058;2024-01-30T03:11:38;1;1;
56069;PMS5003;41944;52.078;-0.058;2024-01-30T03:14:05;1;1;
56069;PMS5003;41944;52.078;-0.058;2024-01-30T03:16:32;0;0;
56069;PMS5003;41944;52.078;-0.058;2024-01-30T03:18:59;2;1;
56069;PMS5003;41944;52.078;-0.058;2024-01-30T03:21:26;1;0;
56069;PMS5003;41944;52.078;-0.058;2024-01-30T03:23:53;2;1;
56069;PMS5003;41944;52.078;-0.058;2024-01-30T03:26:19;2;2;
56069;PMS5003;41944;52.078;-0.058;2024-01-30T03:28:46;2;1;
56069;PMS5003;41944;52.078;-0.058;2024-01-30T03:31:14;2;1;
56069;PMS5003;41944;52.078;-0.058;2024-01-30T03:33:42;2;1;
56069;PMS5003;41944;52.078;-0.058;2024-01-30T03:36:09;0;0;
56069;PMS5003;41944;52.078;-0.058;2024-01-30T03:38:36;1;0;
56069;PMS5003;41944;52.078;-0.058;2024-01-30T03:41:07;0;0;
56069;PMS5003;41944;52.078;-0.058;2024-01-30T03:43:34;1;0;
56069;PMS5003;41944;52.078;-0.058;2024-01-30T03:46:01;0;0;
56069;PMS5003;41944;52.078;-0.058;2024-01-30T03:48:29;2;0;
56069;PMS5003;41944;52.078;-0.058;2024-01-30T03:50:56;2;0;
56069;PMS5003;41944;52.078;-0.058;2024-01-30T03:53:23;2;1;
56069;PMS5003;41944;52.078;-0.058;2024-01-30T03:55:50;1;0;
56069;PMS5003;41944;52.078;-0.058;2024-01-30T03:58:17;1;1;
56069;PMS5003;41944;52.078;-0.058;2024-01-30T04:00:44;0;0;
56069;PMS5003;41944;52.078;-0.058;2024-01-30T04:03:11;1;0;
56069;PMS5003;41944;52.078;-0.058;2024-01-30T04:05:38;0;0;
56069;PMS5003;41944;52.078;-0.058;2024-01-30T04:08:05;0;0;
56069;PMS5003;41944;52.078;-0.058;2024-01-30T04:10:33;1;1;
56069;PMS5003;41944;52.078;-0.058;2024-01-30T04:13:00;1;1;
56069;PMS5003;41944;52.078;-0.058;2024-01-30T04:15:27;2;1;
56069;PMS5003;41944;52.078;-0.058;2024-01-30T04:17:57;0;0;
56069;PMS5003;41944;52.078;-0.058;2024-01-30T04:20:24;0;0;
56069;PMS5003;41944;52.078;-0.058;2024-01-30T04:22:51;2;2;
56069;PMS5003;41944;52.078;-0.058;2024-01-30T04:25:18;1;0;
56069;PMS5003;41944;52.078;-0.058;2024-01-30T04:27:45;2;0;
56069;PMS5003;41944;52.078;-0.058;2024-01-30T04:30:12;1;1;
56069;PMS5003;41944;52.078;-0.058;2024-01-30T04:32:40;0;0;
56069;PMS5003;41944;52.078;-0.058;2024-01-30T04:35:07;1;0;
56069;PMS5003;41944;52.078;-0.058;2024-01-30T04:37:35;1;1;
56069;PMS5003;41944;52.078;-0.058;2024-01-30T04:40:02;1;1;
56069;PMS5003;41944;52.078;-0.058;2024-01-30T04:42:30;2;2;
56069;PMS5003;41944;52.078;-0.058;2024-01-30T04:44:57;1;1;
56069;PMS5003;41944;52.078;-0.058;2024-01-30T04:47:24;0;0;
56069;PMS5003;41944;52.078;-0.058;2024-01-30T04:49:51;1;1;
56069;PMS5003;41944;52.078;-0.058;2024-01-30T04:52:18;2;2;
56069;PMS5003;41944;52.078;-0.058;2024-01-30T04:54:45;4;2;
56069;PMS5003;41944;52.078;-0.058;2024-01-30T04:57:12;3;2;
56069;PMS5003;41944;52.078;-0.058;2024-01-30T04:59:39;3;1;
56069;PMS5003;41944;52.078;-0.058;2024-01-30T05:02:06;2;2;
56069;PMS5003;41944;52.078;-0.058;2024-01-30T05:04:33;2;2;
56069;PMS5003;41944;52.078;-0.058;2024-01-30T05:07:00;1;1;
56069;PMS5003;41944;52.078;-0.058;2024-01-30T05:09:27;1;1;
56069;PMS5003;41944;52.078;-0.058;2024-01-30T05:11:53;0;0;
56069;PMS5003;41944;52.078;-0.058;2024-01-30T05:14:20;1;1;
56069;PMS5003;41944;52.078;-0.058;2024-01-30T05:16:47;2;1;
56069;PMS5003;41944;52.078;-0.058;2024-01-30T05:19:14;1;1;
56069;PMS5003;41944;52.078;-0.058;2024-01-30T05:21:41;1;1;
56069;PMS5003;41944;52.078;-0.058;2024-01-30T05:24:08;2;2;
56069;PMS5003;41944;52.078;-0.058;2024-01-30T05:26:35;1;1;
56069;PMS5003;41944;52.078;-0.058;2024-01-30T05:29:02;3;2;
56069;PMS5003;41944;52.078;-0.058;2024-01-30T05:31:28;1;1;
56069;PMS5003;41944;52.078;-0.058;2024-01-30T05:33:55;1;1;
56069;PMS5003;41944;52.078;-0.058;2024-01-30T05:36:22;1;1;
56069;PMS5003;41944;52.078;-0.058;2024-01-30T05:38:49;1;1;
56069;PMS5003;41944;52.078;-0.058;2024-01-30T05:41:16;1;1;
56069;PMS5003;41944;52.078;-0.058;2024-01-30T05:43:43;1;1;
56069;PMS5003;41944;52.078;-0.058;2024-01-30T05:46:10;1;1;
56069;PMS5003;41944;52.078;-0.058;2024-01-30T05:48:37;2;2;
56069;PMS5003;41944;52.078;-0.058;2024-01-30T05:51:04;2;2;
56069;PMS5003;41944;52.078;-0.058;2024-01-30T05:53:31;3;2;
56069;PMS5003;41944;52.078;-0.058;2024-01-30T05:55:59;2;2;
56069;PMS5003;41944;52.078;-0.058;2024-01-30T05:58:28;1;1;
56069;PMS5003;41944;52.078;-0.058;2024-01-30T06:00:55;1;1;
56069;PMS5003;41944;52.078;-0.058;2024-01-30T06:03:21;1;1;
56069;PMS5003;41944;52.078;-0.058;2024-01-30T06:05:48;1;1;
56069;PMS5003;41944;52.078;-0.058;2024-01-30T06:08:15;3;3;
56069;PMS5003;41944;52.078;-0.058;2024-01-30T06:10:42;1;1;
56069;PMS5003;41944;52.078;-0.058;2024-01-30T06:13:09;1;1;
56069;PMS5003;41944;52.078;-0.058;2024-01-30T06:15:36;1;1;
56069;PMS5003;41944;52.078;-0.058;2024-01-30T06:18:03;2;2;
56069;PMS5003;41944;52.078;-0.058;2024-01-30T06:20:30;1;1;
56069;PMS5003;41944;52.078;-0.058;2024-01-30T06:22:57;3;3;
56069;PMS5003;41944;52.078;-0.058;2024-01-30T06:25:24;2;2;
56069;PMS5003;41944;52.078;-0.058;2024-01-30T06:27:51;2;2;
56069;PMS5003;41944;52.078;-0.058;2024-01-30T06:30:18;1;1;
56069;PMS5003;41944;52.078;-0.058;2024-01-30T06:32:46;3;3;
56069;PMS5003;41944;52.078;-0.058;2024-01-30T06:35:12;4;2;
56069;PMS5003;41944;52.078;-0.058;2024-01-30T06:37:39;3;3;
56069;PMS5003;41944;52.078;-0.058;2024-01-30T06:40:07;3;3;
56069;PMS5003;41944;52.078;-0.058;2024-01-30T06:42:34;3;3;
56069;PMS5003;41944;52.078;-0.058;2024-01-30T06:45:01;8;7;
56069;PMS5003;41944;52.078;-0.058;2024-01-30T06:47:28;7;6;
56069;PMS5003;41944;52.078;-0.058;2024-01-30T06:49:55;5;5;
56069;PMS5003;41944;52.078;-0.058;2024-01-30T06:52:21;4;4;
56069;PMS5003;41944;52.078;-0.058;2024-01-30T06:54:48;4;4;
56069;PMS5003;41944;52.078;-0.058;2024-01-30T06:57:15;3;3;
56069;PMS5003;41944;52.078;-0.058;2024-01-30T06:59:42;5;5;
56069;PMS5003;41944;52.078;-0.058;2024-01-30T07:02:09;3;3;
56069;PMS5003;41944;52.078;-0.058;2024-01-30T07:04:36;3;3;
56069;PMS5003;41944;52.078;-0.058;2024-01-30T07:07:03;3;3;
56069;PMS5003;41944;52.078;-0.058;2024-01-30T07:09:30;4;3;
56069;PMS5003;41944;52.078;-0.058;2024-01-30T07:11:57;4;4;
56069;PMS5003;41944;52.078;-0.058;2024-01-30T07:14:24;3;3;
56069;PMS5003;41944;52.078;-0.058;2024-01-30T07:16:50;2;2;
56069;PMS5003;41944;52.078;-0.058;2024-01-30T07:19:17;4;4;
56069;PMS5003;41944;52.078;-0.058;2024-01-30T07:21:45;2;2;
56069;PMS5003;41944;52.078;-0.058;2024-01-30T07:24:12;4;4;
56069;PMS5003;41944;52.078;-0.058;2024-01-30T07:26:39;3;3;
56069;PMS5003;41944;52.078;-0.058;2024-01-30T07:29:06;4;4;
56069;PMS5003;41944;52.078;-0.058;2024-01-30T07:31:33;4;4;
56069;PMS5003;41944;52.078;-0.058;2024-01-30T07:34:00;3;3;
56069;PMS5003;41944;52.078;-0.058;2024-01-30T07:36:26;5;3;
56069;PMS5003;41944;52.078;-0.058;2024-01-30T07:38:53;3;3;
56069;PMS5003;41944;52.078;-0.058;2024-01-30T07:41:20;4;4;
56069;PMS5003;41944;52.078;-0.058;2024-01-30T07:43:47;3;3;
56069;PMS5003;41944;52.078;-0.058;2024-01-30T07:46:14;2;2;
56069;PMS5003;41944;52.078;-0.058;2024-01-30T07:48:42;4;4;
56069;PMS5003;41944;52.078;-0.058;2024-01-30T07:51:09;4;4;
56069;PMS5003;41944;52.078;-0.058;2024-01-30T07:53:36;7;7;
56069;PMS5003;41944;52.078;-0.058;2024-01-30T07:56:03;8;7;
56069;PMS5003;41944;52.078;-0.058;2024-01-30T07:58:32;4;4;
56069;PMS5003;41944;52.078;-0.058;2024-01-30T08:00:59;4;4;
56069;PMS5003;41944;52.078;-0.058;2024-01-30T08:03:25;5;5;
56069;PMS5003;41944;52.078;-0.058;2024-01-30T08:05:52;5;5;
56069;PMS5003;41944;52.078;-0.058;2024-01-30T08:08:19;4;4;
56069;PMS5003;41944;52.078;-0.058;2024-01-30T08:10:46;6;4;
56069;PMS5003;41944;52.078;-0.058;2024-01-30T08:13:13;4;4;
56069;PMS5003;41944;52.078;-0.058;2024-01-30T08:15:40;5;5;
56069;PMS5003;41944;52.078;-0.058;2024-01-30T08:18:07;4;2;
56069;PMS5003;41944;52.078;-0.058;2024-01-30T08:20:34;3;2;
56069;PMS5003;41944;52.078;-0.058;2024-01-30T08:23:01;5;5;
56069;PMS5003;41944;52.078;-0.058;2024-01-30T08:25:28;4;4;
56069;PMS5003;41944;52.078;-0.058;2024-01-30T08:27:54;2;2;
56069;PMS5003;41944;52.078;-0.058;2024-01-30T08:30:21;3;2;
56069;PMS5003;41944;52.078;-0.058;2024-01-30T08:32:48;6;3;
56069;PMS5003;41944;52.078;-0.058;2024-01-30T08:35:15;5;5;
56069;PMS5003;41944;52.078;-0.058;2024-01-30T08:37:42;7;7;
56069;PMS5003;41944;52.078;-0.058;2024-01-30T08:40:09;3;3;
56069;PMS5003;41944;52.078;-0.058;2024-01-30T08:42:37;5;5;
56069;PMS5003;41944;52.078;-0.058;2024-01-30T08:45:04;6;6;
56069;PMS5003;41944;52.078;-0.058;2024-01-30T08:47:32;6;5;
56069;PMS5003;41944;52.078;-0.058;2024-01-30T08:49:59;6;6;
56069;PMS5003;41944;52.078;-0.058;2024-01-30T08:52:26;4;3;
56069;PMS5003;41944;52.078;-0.058;2024-01-30T08:54:53;4;4;
56069;PMS5003;41944;52.078;-0.058;2024-01-30T08:57:20;4;4;
56069;PMS5003;41944;52.078;-0.058;2024-01-30T08:59:47;4;4;
56069;PMS5003;41944;52.078;-0.058;2024-01-30T09:02:13;2;2;
56069;PMS5003;41944;52.078;-0.058;2024-01-30T09:04:40;4;4;
56069;PMS5003;41944;52.078;-0.058;2024-01-30T09:07:08;4;4;
56069;PMS5003;41944;52.078;-0.058;2024-01-30T09:09:37;4;3;
56069;PMS5003;41944;52.078;-0.058;2024-01-30T09:12:05;3;3;
56069;PMS5003;41944;52.078;-0.058;2024-01-30T09:14:32;3;3;
56069;PMS5003;41944;52.078;-0.058;2024-01-30T09:16:59;4;2;
56069;PMS5003;41944;52.078;-0.058;2024-01-30T09:19:26;4;4;
56069;PMS5003;41944;52.078;-0.058;2024-01-30T09:21:53;2;2;
56069;PMS5003;41944;52.078;-0.058;2024-01-30T09:24:20;3;3;
56069;PMS5003;41944;52.078;-0.058;2024-01-30T09:26:47;2;2;
56069;PMS5003;41944;52.078;-0.058;2024-01-30T09:29:14;6;3;
56069;PMS5003;41944;52.078;-0.058;2024-01-30T09:31:42;3;2;
56069;PMS5003;41944;52.078;-0.058;2024-01-30T09:34:09;3;3;
56069;PMS5003;41944;52.078;-0.058;2024-01-30T09:36:36;3;3;
56069;PMS5003;41944;52.078;-0.058;2024-01-30T09:39:03;4;4;
56069;PMS5003;41944;52.078;-0.058;2024-01-30T09:41:30;5;3;
56069;PMS5003;41944;52.078;-0.058;2024-01-30T09:43:59;3;3;
56069;PMS5003;41944;52.078;-0.058;2024-01-30T09:46:28;1;1;
56069;PMS5003;41944;52.078;-0.058;2024-01-30T09:48:57;4;4;
56069;PMS5003;41944;52.078;-0.058;2024-01-30T09:51:25;3;3;
56069;PMS5003;41944;52.078;-0.058;2024-01-30T09:53:54;4;4;
56069;PMS5003;41944;52.078;-0.058;2024-01-30T09:56:22;4;4;
56069;PMS5003;41944;52.078;-0.058;2024-01-30T09:58:49;2;2;
56069;PMS5003;41944;52.078;-0.058;2024-01-30T10:01:17;1;1;
56069;PMS5003;41944;52.078;-0.058;2024-01-30T10:03:45;5;4;
56069;PMS5003;41944;52.078;-0.058;2024-01-30T10:06:12;2;2;
56069;PMS5003;41944;52.078;-0.058;2024-01-30T10:08:39;4;4;
56069;PMS5003;41944;52.078;-0.058;2024-01-30T10:11:08;5;4;
56069;PMS5003;41944;52.078;-0.058;2024-01-30T10:13:36;3;3;
56069;PMS5003;41944;52.078;-0.058;2024-01-30T10:16:05;3;3;
56069;PMS5003;41944;52.078;-0.058;2024-01-30T10:18:32;3;3;
56069;PMS5003;41944;52.078;-0.058;2024-01-30T10:20:59;6;3;
56069;PMS5003;41944;52.078;-0.058;2024-01-30T10:23:26;2;2;
56069;PMS5003;41944;52.078;-0.058;2024-01-30T10:25:53;3;3;
56069;PMS5003;41944;52.078;-0.058;2024-01-30T10:28:21;1;1;
56069;PMS5003;41944;52.078;-0.058;2024-01-30T10:30:57;3;2;
56069;PMS5003;41944;52.078;-0.058;2024-01-30T10:33:24;3;3;
56069;PMS5003;41944;52.078;-0.058;2024-01-30T10:35:51;3;3;
56069;PMS5003;41944;52.078;-0.058;2024-01-30T10:38:19;3;3;
56069;PMS5003;41944;52.078;-0.058;2024-01-30T10:40:46;5;4;
56069;PMS5003;41944;52.078;-0.058;2024-01-30T10:43:18;3;3;
56069;PMS5003;41944;52.078;-0.058;2024-01-30T10:45:49;13;10;
56069;PMS5003;41944;52.078;-0.058;2024-01-30T10:48:19;6;5;
56069;PMS5003;41944;52.078;-0.058;2024-01-30T10:50:52;9;8;
56069;PMS5003;41944;52.078;-0.058;2024-01-30T10:53:22;12;10;
56069;PMS5003;41944;52.078;-0.058;2024-01-30T10:55:49;6;6;
56069;PMS5003;41944;52.078;-0.058;2024-01-30T10:58:19;12;9;
56069;PMS5003;41944;52.078;-0.058;2024-01-30T11:00:47;8;8;
56069;PMS5003;41944;52.078;-0.058;2024-01-30T11:03:16;10;10;
56069;PMS5003;41944;52.078;-0.058;2024-01-30T11:05:48;6;5;
56069;PMS5003;41944;52.078;-0.058;2024-01-30T11:08:22;8;6;
56069;PMS5003;41944;52.078;-0.058;2024-01-30T11:10:54;7;5;
56069;PMS5003;41944;52.078;-0.058;2024-01-30T11:13:22;8;8;
56069;PMS5003;41944;52.078;-0.058;2024-01-30T11:15:54;3;3;
56069;PMS5003;41944;52.078;-0.058;2024-01-30T11:18:24;8;7;
56069;PMS5003;41944;52.078;-0.058;2024-01-30T11:20:52;6;6;
56069;PMS5003;41944;52.078;-0.058;2024-01-30T11:23:21;6;6;
56069;PMS5003;41944;52.078;-0.058;2024-01-30T11:25:49;7;4;
56069;PMS5003;41944;52.078;-0.058;2024-01-30T11:28:18;12;8;
56069;PMS5003;41944;52.078;-0.058;2024-01-30T11:30:48;14;7;
56069;PMS5003;41944;52.078;-0.058;2024-01-30T11:33:15;6;4;
56069;PMS5003;41944;52.078;-0.058;2024-01-30T11:35:43;8;6;
56069;PMS5003;41944;52.078;-0.058;2024-01-30T11:38:11;7;6;
56069;PMS5003;41944;52.078;-0.058;2024-01-30T11:40:41;5;5;
56069;PMS5003;41944;52.078;-0.058;2024-01-30T11:43:09;6;6;
56069;PMS5003;41944;52.078;-0.058;2024-01-30T11:45:36;4;3;
56069;PMS5003;41944;52.078;-0.058;2024-01-30T11:48:04;8;5;
56069;PMS5003;41944;52.078;-0.058;2024-01-30T11:50:32;3;2;
56069;PMS5003;41944;52.078;-0.058;2024-01-30T11:53:01;5;5;
56069;PMS5003;41944;52.078;-0.058;2024-01-30T11:55:28;3;3;
56069;PMS5003;41944;52.078;-0.058;2024-01-30T11:57:56;6;4;
56069;PMS5003;41944;52.078;-0.058;2024-01-30T12:00:23;8;4;
56069;PMS5003;41944;52.078;-0.058;2024-01-30T12:02:51;5;4;
56069;PMS5003;41944;52.078;-0.058;2024-01-30T12:05:19;6;3;
56069;PMS5003;41944;52.078;-0.058;2024-01-30T12:07:46;4;4;
56069;PMS5003;41944;52.078;-0.058;2024-01-30T12:10:13;6;4;
56069;PMS5003;41944;52.078;-0.058;2024-01-30T12:12:41;5;4;
56069;PMS5003;41944;52.078;-0.058;2024-01-30T12:15:12;4;4;
56069;PMS5003;41944;52.078;-0.058;2024-01-30T12:17:40;4;4;
56069;PMS5003;41944;52.078;-0.058;2024-01-30T12:20:07;4;4;
56069;PMS5003;41944;52.078;-0.058;2024-01-30T12:22:36;4;4;
56069;PMS5003;41944;52.078;-0.058;2024-01-30T12:25:05;5;5;
56069;PMS5003;41944;52.078;-0.058;2024-01-30T12:27:35;6;5;
56069;PMS5003;41944;52.078;-0.058;2024-01-30T12:30:05;11;10;
56069;PMS5003;41944;52.078;-0.058;2024-01-30T12:32:34;5;5;
56069;PMS5003;41944;52.078;-0.058;2024-01-30T12:35:01;4;4;
56069;PMS5003;41944;52.078;-0.058;2024-01-30T12:37:28;5;4;
56069;PMS5003;41944;52.078;-0.058;2024-01-30T12:39:55;9;6;
56069;PMS5003;41944;52.078;-0.058;2024-01-30T12:42:23;5;4;
56069;PMS5003;41944;52.078;-0.058;2024-01-30T12:44:50;5;5;
56069;PMS5003;41944;52.078;-0.058;2024-01-30T12:47:17;5;5;
56069;PMS5003;41944;52.078;-0.058;2024-01-30T12:49:45;9;7;
56069;PMS5003;41944;52.078;-0.058;2024-01-30T12:52:12;7;7;
56069;PMS5003;41944;52.078;-0.058;2024-01-30T12:54:40;5;5;
56069;PMS5003;41944;52.078;-0.058;2024-01-30T12:57:07;6;6;
56069;PMS5003;41944;52.078;-0.058;2024-01-30T12:59:34;6;6;
56069;PMS5003;41944;52.078;-0.058;2024-01-30T13:02:01;6;6;
56069;PMS5003;41944;52.078;-0.058;2024-01-30T13:04:28;9;9;
56069;PMS5003;41944;52.078;-0.058;2024-01-30T13:06:55;7;4;
56069;PMS5003;41944;52.078;-0.058;2024-01-30T13:09:23;8;8;
56069;PMS5003;41944;52.078;-0.058;2024-01-30T13:11:50;8;7;
56069;PMS5003;41944;52.078;-0.058;2024-01-30T13:14:17;12;9;
56069;PMS5003;41944;52.078;-0.058;2024-01-30T13:16:45;9;9;
56069;PMS5003;41944;52.078;-0.058;2024-01-30T13:19:12;7;7;
56069;PMS5003;41944;52.078;-0.058;2024-01-30T13:21:39;6;6;
56069;PMS5003;41944;52.078;-0.058;2024-01-30T13:24:06;16;14;
56069;PMS5003;41944;52.078;-0.058;2024-01-30T13:26:33;10;9;
56069;PMS5003;41944;52.078;-0.058;2024-01-30T13:29:00;11;8;
56069;PMS5003;41944;52.078;-0.058;2024-01-30T13:31:27;7;6;
56069;PMS5003;41944;52.078;-0.058;2024-01-30T13:33:54;12;9;
56069;PMS5003;41944;52.078;-0.058;2024-01-30T13:36:21;8;8;
56069;PMS5003;41944;52.078;-0.058;2024-01-30T13:38:49;12;11;
56069;PMS5003;41944;52.078;-0.058;2024-01-30T13:41:16;8;8;
56069;PMS5003;41944;52.078;-0.058;2024-01-30T13:43:43;14;10;
56069;PMS5003;41944;52.078;-0.058;2024-01-30T13:46:11;11;11;
56069;PMS5003;41944;52.078;-0.058;2024-01-30T13:48:38;17;14;
56069;PMS5003;41944;52.078;-0.058;2024-01-30T13:51:05;12;12;
56069;PMS5003;41944;52.078;-0.058;2024-01-30T13:53:32;12;11;
56069;PMS5003;41944;52.078;-0.058;2024-01-30T13:55:59;12;10;
56069;PMS5003;41944;52.078;-0.058;2024-01-30T13:58:26;11;11;
56069;PMS5003;41944;52.078;-0.058;2024-01-30T14:00:52;12;12;
56069;PMS5003;41944;52.078;-0.058;2024-01-30T14:03:19;13;13;
56069;PMS5003;41944;52.078;-0.058;2024-01-30T14:05:46;12;12;
56069;PMS5003;41944;52.078;-0.058;2024-01-30T14:08:13;11;11;
56069;PMS5003;41944;52.078;-0.058;2024-01-30T14:10:40;13;12;
56069;PMS5003;41944;52.078;-0.058;2024-01-30T14:13:07;15;14;
56069;PMS5003;41944;52.078;-0.058;2024-01-30T14:15:34;13;10;
56069;PMS5003;41944;52.078;-0.058;2024-01-30T14:18:01;14;11;
56069;PMS5003;41944;52.078;-0.058;2024-01-30T14:20:28;10;10;
56069;PMS5003;41944;52.078;-0.058;2024-01-30T14:22:55;11;9;
56069;PMS5003;41944;52.078;-0.058;2024-01-30T14:25:22;10;10;
56069;PMS5003;41944;52.078;-0.058;2024-01-30T14:27:49;17;13;
56069;PMS5003;41944;52.078;-0.058;2024-01-30T14:30:15;10;10;
56069;PMS5003;41944;52.078;-0.058;2024-01-30T14:32:43;12;11;
56069;PMS5003;41944;52.078;-0.058;2024-01-30T14:35:10;13;13;
56069;PMS5003;41944;52.078;-0.058;2024-01-30T14:37:37;12;12;
56069;PMS5003;41944;52.078;-0.058;2024-01-30T14:40:05;17;14;
56069;PMS5003;41944;52.078;-0.058;2024-01-30T14:42:33;11;11;
56069;PMS5003;41944;52.078;-0.058;2024-01-30T14:45:00;12;10;
56069;PMS5003;41944;52.078;-0.058;2024-01-30T14:47:27;19;18;
56069;PMS5003;41944;52.078;-0.058;2024-01-30T14:49:54;15;14;
56069;PMS5003;41944;52.078;-0.058;2024-01-30T14:52:21;21;17;
56069;PMS5003;41944;52.078;-0.058;2024-01-30T14:54:48;17;10;
56069;PMS5003;41944;52.078;-0.058;2024-01-30T14:57:15;12;11;
56069;PMS5003;41944;52.078;-0.058;2024-01-30T14:59:43;17;9;
56069;PMS5003;41944;52.078;-0.058;2024-01-30T15:02:10;7;7;
56069;PMS5003;41944;52.078;-0.058;2024-01-30T15:04:36;9;7;
56069;PMS5003;41944;52.078;-0.058;2024-01-30T15:07:03;11;10;
56069;PMS5003;41944;52.078;-0.058;2024-01-30T15:09:31;14;13;
56069;PMS5003;41944;52.078;-0.058;2024-01-30T15:11:57;12;9;
56069;PMS5003;41944;52.078;-0.058;2024-01-30T15:14:24;13;11;
56069;PMS5003;41944;52.078;-0.058;2024-01-30T15:16:51;12;12;
56069;PMS5003;41944;52.078;-0.058;2024-01-30T15:19:18;10;10;
56069;PMS5003;41944;52.078;-0.058;2024-01-30T15:21:46;10;8;
56069;PMS5003;41944;52.078;-0.058;2024-01-30T15:24:13;7;7;
56069;PMS5003;41944;52.078;-0.058;2024-01-30T15:26:40;10;8;
56069;PMS5003;41944;52.078;-0.058;2024-01-30T15:29:07;16;14;
56069;PMS5003;41944;52.078;-0.058;2024-01-30T15:31:34;10;10;
56069;PMS5003;41944;52.078;-0.058;2024-01-30T15:34:01;10;10;
56069;PMS5003;41944;52.078;-0.058;2024-01-30T15:36:28;11;10;
56069;PMS5003;41944;52.078;-0.058;2024-01-30T15:38:56;10;9;
56069;PMS5003;41944;52.078;-0.058;2024-01-30T15:41:23;8;8;
56069;PMS5003;41944;52.078;-0.058;2024-01-30T15:43:50;12;11;
56069;PMS5003;41944;52.078;-0.058;2024-01-30T15:46:16;10;10;
56069;PMS5003;41944;52.078;-0.058;2024-01-30T15:48:44;8;7;
56069;PMS5003;41944;52.078;-0.058;2024-01-30T15:51:11;11;9;
56069;PMS5003;41944;52.078;-0.058;2024-01-30T15:53:38;6;5;
56069;PMS5003;41944;52.078;-0.058;2024-01-30T15:56:05;8;8;
56069;PMS5003;41944;52.078;-0.058;2024-01-30T15:58:32;10;9;
56069;PMS5003;41944;52.078;-0.058;2024-01-30T16:00:59;5;5;
56069;PMS5003;41944;52.078;-0.058;2024-01-30T16:03:26;16;12;
56069;PMS5003;41944;52.078;-0.058;2024-01-30T16:05:53;10;10;
56069;PMS5003;41944;52.078;-0.058;2024-01-30T16:08:20;14;13;
56069;PMS5003;41944;52.078;-0.058;2024-01-30T16:10:47;11;10;
56069;PMS5003;41944;52.078;-0.058;2024-01-30T16:13:14;10;10;
56069;PMS5003;41944;52.078;-0.058;2024-01-30T16:15:41;9;9;
56069;PMS5003;41944;52.078;-0.058;2024-01-30T16:18:07;11;9;
56069;PMS5003;41944;52.078;-0.058;2024-01-30T16:20:34;14;10;
56069;PMS5003;41944;52.078;-0.058;2024-01-30T16:23:01;14;10;
56069;PMS5003;41944;52.078;-0.058;2024-01-30T16:25:28;16;15;